01:59
Airports
History
Links
Donate
Help keep this website running!
PayPal
Bitcoin
This page is community maintained. The information is intended for PC simulator navigation or reference.
Always use approved charts for navigation.
LFKL
Lyon Brindas
Lyon Brindas (LFKL)
Brindas, Rhône-Alpes, France (69126)
4
Lat/Lng:45° 42' 42" N / 4° 41' 52" E
45.711667 / 4.697778
Elevation:1040'ft / 317mMSL
ID / ICAO:LFKL
Runways:1
Longest:01-19
Grass 435m / 1,426ft
Nearby Weather01:30 GMT 2017-10-18
Nearby weather at LFLY, Lyon Bron located 11.9 nautical miles from LFKL
Altimeter: 30.06
Visibility: 6.2 statute miles
Wind: 8 knots (from 150°)
Temp: 15°c / 59°f
Humidity: 82.2%

METAR: LFLY 180130Z AUTO 15008KT CAVOK 15/12 Q1018 NOSIG

(Powered by phpweather)
Nearby VORs <50NM
Nearby NDBs
Runway 01 / 19
Dimensions:434.5 x 60.1m 1426' x 197'ft
Surface:Grass
Runway 01 [A]Runway 19 [B]
Heading:007°TH 187°TH
Lat:
Lng:
45° 42' 35.01"N
4° 41' 50.77"E
45° 42' 48.99"N
4° 41' 53.23"E
User Notes and Comments
45° 42' 42" N / 4° 41' 52" E
Distance To
Airport ID:
Nearby Airports
4 Lyon Corbas 11.1 NM
LFHJ ESE 110°
(C) Lyon Bron 11.9 NM
LFLY ( WX ) E 84°
(C) Villefranche Tarare 14.6 NM
LFHV NNW 348°
4 Saint Chamond l Horme 17.0 NM
LFHG SSW 207°
4 Vienne Reventin 18.2 NM
LFHH SSE 159°
(C) Lyon Saint Exupery 19.0 NM
LFLL ( WX ) E 86°
4 Saint Galmier 20.3 NM
LFKM WSW 249°
VFR Chart
Flight Planning at SkyVector.com